ISABELLA DAM (ISB)

Elevation: 2635' · KERN R basin · Operator: US Army Corps of Engineers

Provisional data, subject to change.
Query executed Monday at 4:15:51   clock

Select a sensor type for a plot of data.
Note: Reservoir Flows are daily averages.

Earlier

Date RES ELE    STORAGE    RES CHG    TOC STO    ABV TOC    OUTFLOW    INFLOW    FNF    PPT INC    PPTINC4    TEMP MN    TEMP MX    WINDLEN    EVP PAN   
 FEET   AF   AF   AF   AF   CFS   CFS   CFS   INCHES   INCHES   DEG F   DEG F   MILES   INCHES  
01/09/2016 2524.05 33231 -132 170000 -136769 270 207 207 0.05 0.00 1 11 212 0.06
01/10/2016 2524.03 33193 -38 170000 -136807 270 255 255 0.03 0.05 4 12 204 0.07
01/11/2016 2523.99 33118 -75 170000 -136882 289 256 256 0.00 0.00 2 11 173 0.08
01/12/2016 2523.91 32968 -150 170000 -137032 301 233 233 0.00 0.00 -0 15 191 0.11
01/13/2016 2523.80 32762 -206 170000 -137238 301 201 201 0.01 0.00 -0 12 246 0.07
01/14/2016 2523.72 32613 -149 170000 -137387 299 232 232 0.00 0.00 6 13 373 0.13
01/15/2016 2523.66 32502 -111 170000 -137498 299 249 249 0.00 0.01 4 13 347 0.09
01/16/2016 2523.59 32373 -129 170000 -137627 299 240 240 0.02 0.00 2 16 271 0.10
01/17/2016 2523.55 32299 -74 170000 -137701 277 247 247 0.00 0.00 3 17 188 0.11
01/18/2016 2523.59 32373 74 170000 -137627 231 273 273 0.05 0.00 5 13 245 0.07
01/19/2016 2523.90 32949 576 170000 -137051 225 518 518 1.50 0.04 3 12 155 0.04
01/20/2016 2524.55 34183 1234 170000 -135817 243 870 870 0.03 1.50 4 15 134 0.08
01/21/2016 2524.79 34647 464 170000 -135353 253 498 498 0.00 0.00 4 17 368 0.17
01/22/2016 2524.90 34861 214 170000 -135139 282 397 397 0.00 0.00 2 16 127 0.10
01/23/2016 2524.92 34900 39 170000 -135100 325 350 350 0.00 0.00 6 12 233 0.08
01/24/2016 2525.01 35076 176 170000 -134924 325 420 420 0.00 0.00 4 11 317 0.09
01/25/2016 2525.03 35116 40 170000 -134884 325 351 351 0.00 0.00 1 12 185 0.09
01/26/2016 2525.02 35096 -20 170000 -134904 325 324 324 0.07 0.00 1 19 230 0.14
01/27/2016 2524.99 35037 -59 170000 -134963 325 302 302 0.00 0.00 2 16 131 0.10
01/28/2016 2524.94 34939 -98 170000 -135061 326 285 285 0.00 0.00 0 17 212 0.13
01/29/2016 2524.87 34803 -136 170000 -135197 325 268 268 0.01 0.00 5 21 322 0.17
01/30/2016 2524.92 34900 97 170000 -135100 313 367 367 0.00 0.00 8 14 367 0.07
01/31/2016 2525.45 35947 1047 170000 -134053 300 830 830 0.68 0.22 -0 9 274 0.03
02/01/2016 2525.85 36753 806 47454 -10701 256 666 666 0.04 0.70 -1 4 380 0.06
02/02/2016 2526.07 37201 448 49085 -11884 225 455 455 0.05 0.00 -4 7 198 0.07
02/03/2016 2526.25 37571 370 50673 -13102 225 417 -- 0.02 0.00 -3 11 138 0.09
02/04/2016 2526.43 37944 373 52279 -14335 225 419 -- 0.02 0.00 -2 14 171 0.10
02/05/2016 2526.51 38111 167 53849 -15738 292 386 -- 0.00 0.00 1 18 230 0.16
02/06/2016 2526.55 38194 83 55416 -17222 326 375 -- 0.00 0.00 1 18 140 0.13
02/07/2016 2526.59 38278 84 57006 -- 324 380 -- 0.05 0.00 1 23 273 0.22
02/08/2016 -- -- -- -- -- -- -- -- -- -- -- -- -- --

Later | Latest

Warning! This data is preliminary and subject to revision.

Show ISB Map | Plot ISB Data | 1 Month ISB Data | Real-Time ISB Data | ISB Info